Time;durP1;ratioP1;P1;durP2;ratioP2;P2;SDS_P1;SDS_P2;PMS_P1;PMS_P2;Temp;Humidity;BMP_temperature;BMP_pressure;BME280_temperature;BME280_humidity;BME280_pressure;Samples;Min_cycle;Max_cycle;Signal;HPM_P1;HPM_P2
2022/06/19 00:00:34;;;;;;;37.33;23.85;;;25.90;55.40;;;;;;4971673;28;20056;-76
2022/06/19 00:03:01;;;;;;;28.50;23.02;;;25.90;56.90;;;;;;4981364;28;20356;-76
2022/06/19 00:05:27;;;;;;;39.08;21.90;;;25.80;57.70;;;;;;4989501;28;20038;-77
2022/06/19 00:07:55;;;;;;;32.83;29.63;;;25.60;57.90;;;;;;4992245;28;20479;-76
2022/06/19 00:10:21;;;;;;;18.95;16.80;;;25.10;59.10;;;;;;4992177;28;20372;-75
2022/06/19 00:12:47;;;;;;;24.55;15.38;;;24.10;63.20;;;;;;4971354;28;20057;-77
2022/06/19 00:15:13;;;;;;;25.30;17.70;;;23.30;67.00;;;;;;4985788;28;20049;-77
2022/06/19 00:17:39;;;;;;;24.92;20.30;;;23.00;68.20;;;;;;4993102;28;20102;-76
2022/06/19 00:20:06;;;;;;;17.95;16.48;;;22.50;70.40;;;;;;5010709;28;20505;-76
2022/06/19 00:22:32;;;;;;;20.98;19.42;;;22.10;71.00;;;;;;5013520;28;20030;-76
2022/06/19 00:24:58;;;;;;;18.88;16.98;;;21.70;71.50;;;;;;4991846;28;20398;-76
2022/06/19 00:27:25;;;;;;;22.65;20.45;;;21.40;73.30;;;;;;4992868;28;20438;-75
2022/06/19 00:29:52;;;;;;;17.20;15.70;;;21.20;74.00;;;;;;4975796;28;20043;-76
2022/06/19 00:32:18;;;;;;;19.80;17.77;;;21.60;73.50;;;;;;5011071;28;20041;-76
2022/06/19 00:34:44;;;;;;;19.90;17.48;;;21.90;71.30;;;;;;5013036;28;20390;-76
2022/06/19 00:37:10;;;;;;;21.33;19.10;;;21.90;71.30;;;;;;5011691;28;20045;-76
2022/06/19 00:39:39;;;;;;;23.10;19.08;;;21.90;71.40;;;;;;5011354;28;20416;-76
2022/06/19 00:42:07;;;;;;;24.13;16.15;;;22.20;72.40;;;;;;4992734;28;20033;-76
2022/06/19 00:44:33;;;;;;;22.10;19.92;;;22.60;71.20;;;;;;5011326;28;20034;-76
2022/06/19 00:47:14;;;;;;;31.85;28.88;;;23.10;71.00;;;;;;5011089;28;20041;-76
2022/06/19 00:49:45;;;;;;;46.17;42.47;;;23.20;69.70;;;;;;5007683;28;20037;-76
2022/06/19 00:52:16;;;;;;;42.08;39.13;;;23.20;68.90;;;;;;5010399;28;20502;-76
2022/06/19 00:55:02;;;;;;;53.50;49.28;;;23.10;68.30;;;;;;4992032;28;20506;-75
2022/06/19 00:57:30;;;;;;;38.72;35.58;;;22.80;70.20;;;;;;4993585;28;20029;-76
2022/06/19 01:00:26;;;;;;;53.28;48.70;;;22.60;71.40;;;;;;4977988;28;20041;-75
2022/06/19 01:02:54;;;;;;;45.92;42.75;;;22.80;70.20;;;;;;4992327;28;20034;-75
2022/06/19 01:05:20;;;;;;;41.78;38.22;;;23.00;70.50;;;;;;5012043;28;20065;-76
2022/06/19 01:07:46;;;;;;;49.47;45.88;;;23.30;70.00;;;;;;4995291;28;20034;-76
2022/06/19 01:10:13;;;;;;;34.35;31.58;;;22.70;70.90;;;;;;5009270;28;20383;-76
2022/06/19 01:12:40;;;;;;;51.25;47.60;;;22.20;73.50;;;;;;5009136;28;20057;-76
2022/06/19 01:15:08;;;;;;;40.88;37.22;;;22.00;72.00;;;;;;4991395;28;20048;-75
2022/06/19 01:17:34;;;;;;;34.00;31.70;;;22.00;73.30;;;;;;4991979;28;20397;-76
2022/06/19 01:20:01;;;;;;;23.80;21.40;;;21.60;73.40;;;;;;4994349;28;20030;-75
2022/06/19 01:22:57;;;;;;;23.25;18.63;;;21.30;75.10;;;;;;4994264;28;20025;-76
2022/06/19 01:25:33;;;;;;;27.90;21.05;;;21.40;75.30;;;;;;4979756;28;20046;-76
2022/06/19 01:30:47;;;;;;;23.35;21.17;;;21.80;73.00;;;;;;4994480;28;20045;-76
2022/06/19 01:33:16;;;;;;;23.40;19.77;;;21.60;73.70;;;;;;4991587;28;20037;-76
2022/06/19 01:35:43;;;;;;;27.10;20.00;;;21.50;74.10;;;;;;4991783;28;20042;-76
2022/06/19 01:38:14;;;;;;;27.70;20.40;;;21.50;75.10;;;;;;5010273;28;20025;-77
2022/06/19 01:40:42;;;;;;;25.50;23.45;;;21.50;74.40;;;;;;4994905;28;20029;-76
2022/06/19 01:43:09;;;;;;;28.33;25.48;;;21.50;73.90;;;;;;4991575;28;20030;-76
2022/06/19 01:45:37;;;;;;;20.70;18.98;;;21.30;74.00;;;;;;4990829;28;20049;-76
2022/06/19 01:48:04;;;;;;;22.10;19.55;;;21.40;74.30;;;;;;4991294;28;20029;-76
2022/06/19 01:50:30;;;;;;;22.45;20.25;;;21.60;73.70;;;;;;4991294;28;20053;-76
2022/06/19 01:53:01;;;;;;;21.85;19.20;;;21.50;73.80;;;;;;5011374;28;20026;-76
2022/06/19 01:55:28;;;;;;;23.33;21.00;;;21.40;74.60;;;;;;5006837;28;20041;-76
2022/06/19 01:57:55;;;;;;;33.72;30.33;;;21.40;75.00;;;;;;5007031;28;20026;-77
2022/06/19 02:00:27;;;;;;;31.05;28.27;;;21.30;74.90;;;;;;4973422;28;20042;-77
2022/06/19 02:03:08;;;;;;;24.80;22.38;;;21.30;74.90;;;;;;4983049;28;20022;-76
2022/06/19 02:05:34;;;;;;;30.02;27.55;;;21.20;75.50;;;;;;5010065;28;20030;-76
2022/06/19 02:08:00;;;;;;;30.30;23.50;;;21.20;75.20;;;;;;5009357;28;20367;-76
2022/06/19 02:10:26;;;;;;;25.08;22.25;;;21.20;75.30;;;;;;5009766;28;20038;-76
2022/06/19 02:12:53;;;;;;;28.23;25.77;;;20.90;76.20;;;;;;4990586;28;20562;-76
2022/06/19 02:15:19;;;;;;;28.95;26.00;;;20.90;75.80;;;;;;4976426;28;20061;-76
2022/06/19 02:17:49;;;;;;;26.83;24.23;;;21.00;76.40;;;;;;5009899;28;20038;-76
2022/06/19 02:20:16;;;;;;;27.60;24.83;;;20.90;77.00;;;;;;4990966;28;20046;-75
2022/06/19 02:22:42;;;;;;;29.30;26.88;;;20.90;77.40;;;;;;4994212;28;20034;-76
2022/06/19 02:25:09;;;;;;;25.98;23.38;;;20.80;77.90;;;;;;4990733;28;20049;-79
2022/06/19 02:27:36;;;;;;;30.45;27.48;;;20.60;77.60;;;;;;4973156;28;20487;-76
2022/06/19 02:30:02;;;;;;;29.95;27.35;;;20.50;78.10;;;;;;4983201;28;20034;-76
2022/06/19 02:32:34;;;;;;;27.65;25.35;;;20.50;77.60;;;;;;4989477;28;20034;-76
2022/06/19 02:35:01;;;;;;;30.65;27.60;;;20.70;77.50;;;;;;4992676;28;20034;-76
2022/06/19 02:37:30;;;;;;;32.97;29.85;;;20.70;77.00;;;;;;4992542;28;20036;-75
2022/06/19 02:40:19;;;;;;;29.40;26.58;;;20.90;76.50;;;;;;4990724;28;20483;-76
2022/06/19 02:42:47;;;;;;;36.03;32.50;;;20.90;76.90;;;;;;5009319;28;20052;-76
2022/06/19 02:45:19;;;;;;;37.33;34.25;;;21.10;76.10;;;;;;4990104;28;20033;-75
2022/06/19 02:47:45;;;;;;;34.65;31.75;;;21.40;75.00;;;;;;5009414;28;20029;-76
2022/06/19 02:50:15;;;;;;;34.70;31.13;;;21.70;74.60;;;;;;5008893;28;20037;-76
2022/06/19 02:52:41;;;;;;;21.42;16.90;;;21.80;73.70;;;;;;4992977;28;20022;-76
2022/06/19 02:55:07;;;;;;;21.05;16.83;;;21.70;73.20;;;;;;4976133;28;20041;-76
2022/06/19 02:57:33;;;;;;;24.08;19.45;;;21.70;72.90;;;;;;4991764;28;20045;-76
2022/06/19 02:59:59;;;;;;;19.88;16.80;;;21.70;73.00;;;;;;4989899;28;20026;-76
2022/06/19 03:02:28;;;;;;;20.08;16.83;;;21.30;74.50;;;;;;4973622;28;20053;-76
2022/06/19 03:04:56;;;;;;;18.60;15.35;;;20.80;76.30;;;;;;4993134;28;20025;-76
2022/06/19 03:07:23;;;;;;;17.67;14.95;;;20.50;77.10;;;;;;4987664;28;20026;-75
2022/06/19 03:09:49;;;;;;;25.35;22.63;;;20.20;77.50;;;;;;4985152;28;20034;-75
2022/06/19 03:12:15;;;;;;;28.77;26.30;;;20.30;77.50;;;;;;4992364;28;20054;-75
2022/06/19 03:14:42;;;;;;;29.88;26.88;;;20.40;77.00;;;;;;4989950;28;20041;-76
2022/06/19 03:17:12;;;;;;;19.13;15.73;;;20.50;76.80;;;;;;4990968;28;20050;-75
2022/06/19 03:19:38;;;;;;;21.00;15.05;;;20.80;75.40;;;;;;4992644;28;20026;-76
2022/06/19 03:22:04;;;;;;;16.30;14.63;;;20.60;75.90;;;;;;5008614;28;20041;-75
2022/06/19 03:24:30;;;;;;;28.10;24.83;;;20.20;77.40;;;;;;4989841;28;20037;-75
2022/06/19 03:26:56;;;;;;;18.08;14.77;;;20.00;77.70;;;;;;4989807;28;20033;-75
2022/06/19 03:29:22;;;;;;;23.77;15.13;;;20.20;77.00;;;;;;5007415;28;20033;-75
2022/06/19 03:31:48;;;;;;;22.80;14.27;;;19.90;77.20;;;;;;5010427;28;20490;-75
2022/06/19 03:34:14;;;;;;;27.90;25.35;;;19.80;77.80;;;;;;5008285;28;20030;-75
2022/06/19 03:36:41;;;;;;;21.58;19.33;;;19.80;78.50;;;;;;4989384;28;20494;-76
2022/06/19 03:39:07;;;;;;;29.33;26.58;;;19.80;79.00;;;;;;4989695;28;20026;-75
2022/06/19 03:41:33;;;;;;;29.08;26.17;;;19.80;78.70;;;;;;5008671;28;20363;-76
2022/06/19 03:43:59;;;;;;;26.13;18.75;;;19.80;78.70;;;;;;4992075;28;20030;-75
2022/06/19 03:46:25;;;;;;;22.38;18.45;;;19.70;78.70;;;;;;5008076;28;20104;-75
2022/06/19 03:48:51;;;;;;;28.30;25.58;;;19.60;78.80;;;;;;4990525;28;20018;-79
2022/06/19 03:51:22;;;;;;;25.88;23.13;;;19.40;79.70;;;;;;4993253;28;20037;-78
2022/06/19 03:53:52;;;;;;;28.42;25.83;;;19.40;79.50;;;;;;5011820;28;20033;-76
2022/06/19 03:56:29;;;;;;;28.45;25.65;;;19.40;79.70;;;;;;5012524;28;20064;-76
2022/06/19 03:58:56;;;;;;;26.60;24.05;;;19.40;79.70;;;;;;5010608;28;20037;-78
2022/06/19 04:01:25;;;;;;;19.73;17.35;;;19.30;80.00;;;;;;4994926;28;20368;-78
2022/06/19 04:03:52;;;;;;;28.00;25.23;;;19.30;79.70;;;;;;4993255;28;20045;-75
2022/06/19 04:06:19;;;;;;;26.52;23.85;;;19.20;80.40;;;;;;4993000;28;20502;-78
2022/06/19 04:08:46;;;;;;;24.02;21.20;;;19.10;80.40;;;;;;4979464;28;20390;-78
2022/06/19 04:11:13;;;;;;;24.25;21.85;;;19.10;80.60;;;;;;4994705;28;20386;-79
2022/06/19 04:13:39;;;;;;;25.65;21.58;;;19.10;80.60;;;;;;4996495;28;20129;-76
2022/06/19 04:16:06;;;;;;;22.58;20.17;;;19.10;81.00;;;;;;4992164;28;20049;-78
2022/06/19 04:18:33;;;;;;;31.17;23.35;;;19.10;80.60;;;;;;4992968;28;20029;-79
2022/06/19 04:20:59;;;;;;;26.50;21.60;;;19.10;80.90;;;;;;4992543;28;20025;-79
2022/06/19 04:23:26;;;;;;;26.77;19.50;;;19.10;80.90;;;;;;4992903;28;20037;-76
2022/06/19 04:25:52;;;;;;;25.92;23.13;;;19.00;81.50;;;;;;4996436;28;20030;-79
2022/06/19 04:28:19;;;;;;;24.15;21.98;;;18.90;81.60;;;;;;4994574;28;20026;-78
2022/06/19 04:30:51;;;;;;;27.02;20.75;;;18.80;82.40;;;;;;4991833;28;20045;-78
2022/06/19 04:33:18;;;;;;;21.63;17.55;;;18.70;82.20;;;;;;4992954;28;20037;-78
2022/06/19 04:35:46;;;;;;;26.50;20.92;;;18.70;81.80;;;;;;4992896;28;20467;-78
2022/06/19 04:38:12;;;;;;;22.73;20.20;;;18.60;83.00;;;;;;4994479;28;20041;-79
2022/06/19 04:40:38;;;;;;;26.80;18.52;;;18.60;82.80;;;;;;4995828;28;20029;-79
2022/06/19 04:43:04;;;;;;;23.17;19.08;;;18.60;83.40;;;;;;4992508;28;20045;-79
2022/06/19 04:45:31;;;;;;;24.60;21.10;;;18.70;83.10;;;;;;4992597;28;20040;-76
2022/06/19 04:47:57;;;;;;;23.20;19.67;;;18.70;83.00;;;;;;4992362;28;20473;-76
2022/06/19 04:50:23;;;;;;;26.00;20.85;;;18.80;82.20;;;;;;4992414;28;20049;-77
2022/06/19 04:52:49;;;;;;;25.83;23.15;;;19.10;81.40;;;;;;4996040;28;20032;-77
2022/06/19 04:55:15;;;;;;;23.17;17.10;;;19.30;80.50;;;;;;4978542;28;20332;-76
2022/06/19 04:57:42;;;;;;;21.70;17.13;;;19.50;79.90;;;;;;4994791;28;20052;-76
2022/06/19 05:00:10;;;;;;;22.50;17.73;;;19.40;80.00;;;;;;5009801;28;20312;-76
2022/06/19 05:02:37;;;;;;;30.98;26.65;;;19.40;79.60;;;;;;4991984;28;20026;-76
2022/06/19 05:05:05;;;;;;;24.75;22.10;;;19.40;80.10;;;;;;4994541;28;20022;-76
2022/06/19 05:07:31;;;;;;;24.75;21.45;;;19.30;80.40;;;;;;4993398;28;20026;-76
2022/06/19 05:09:58;;;;;;;27.95;25.25;;;19.30;80.90;;;;;;4992547;28;20034;-79
2022/06/19 05:12:24;;;;;;;27.52;24.55;;;19.10;81.70;;;;;;4991844;28;20057;-76
2022/06/19 05:14:50;;;;;;;29.25;24.63;;;19.10;81.80;;;;;;5010785;28;20471;-79
2022/06/19 05:17:16;;;;;;;19.73;17.48;;;19.10;81.80;;;;;;5010336;28;20061;-76
2022/06/19 05:19:42;;;;;;;27.85;25.15;;;19.10;81.70;;;;;;4979026;28;20041;-76
2022/06/19 05:22:08;;;;;;;25.85;23.38;;;19.20;81.70;;;;;;4994543;28;20045;-76
2022/06/19 05:24:35;;;;;;;27.38;24.70;;;19.20;81.70;;;;;;5010965;28;20030;-79
2022/06/19 05:27:05;;;;;;;24.58;21.30;;;19.30;81.30;;;;;;4991906;28;20036;-78
2022/06/19 05:29:32;;;;;;;31.25;28.30;;;19.30;81.50;;;;;;4991400;28;20037;-76
2022/06/19 05:31:58;;;;;;;34.88;31.50;;;19.60;81.50;;;;;;4994147;28;20033;-76
2022/06/19 05:34:25;;;;;;;34.47;31.60;;;19.90;80.60;;;;;;4993855;28;20033;-76
2022/06/19 05:36:51;;;;;;;23.85;21.05;;;20.20;79.00;;;;;;4991221;28;20037;-76
2022/06/19 05:39:17;;;;;;;22.25;16.92;;;20.50;78.60;;;;;;5010356;28;20033;-76
2022/06/19 05:41:43;;;;;;;20.05;17.95;;;20.70;77.20;;;;;;4991131;28;20039;-76
2022/06/19 05:44:12;;;;;;;21.95;17.02;;;20.70;76.70;;;;;;5010419;28;20476;-76
2022/06/19 05:46:38;;;;;;;20.02;16.58;;;20.40;77.50;;;;;;4992934;28;20045;-76
2022/06/19 05:49:05;;;;;;;19.42;15.65;;;20.40;77.90;;;;;;4991228;28;20398;-77
2022/06/19 05:51:31;;;;;;;23.25;16.98;;;20.40;77.80;;;;;;5010186;28;20042;-76
2022/06/19 05:53:57;;;;;;;23.80;16.35;;;20.50;77.80;;;;;;4990924;28;20037;-76
2022/06/19 05:56:24;;;;;;;24.25;15.90;;;20.40;78.00;;;;;;4977969;28;20064;-76
2022/06/19 05:58:50;;;;;;;21.98;16.83;;;20.50;77.70;;;;;;4994226;28;20018;-76
2022/06/19 06:01:17;;;;;;;19.65;17.55;;;20.60;78.00;;;;;;4993094;28;20045;-76
2022/06/19 06:03:43;;;;;;;22.48;18.52;;;20.60;77.90;;;;;;4991153;28;20037;-76
2022/06/19 06:06:14;;;;;;;27.23;24.42;;;20.50;78.30;;;;;;5008251;28;20034;-76
2022/06/19 06:08:40;;;;;;;29.88;27.13;;;20.50;78.60;;;;;;4990957;28;20049;-76
2022/06/19 06:11:06;;;;;;;31.23;28.65;;;20.60;78.30;;;;;;4991964;28;20036;-78
2022/06/19 06:13:32;;;;;;;26.05;18.08;;;20.60;78.00;;;;;;4993603;28;20048;-76
2022/06/19 06:15:59;;;;;;;27.33;24.67;;;20.60;79.10;;;;;;5009144;28;20041;-76
2022/06/19 06:18:25;;;;;;;25.23;22.88;;;20.80;78.30;;;;;;4990922;28;20030;-76
2022/06/19 06:21:02;;;;;;;29.23;26.58;;;20.80;78.10;;;;;;4990371;28;20041;-78
2022/06/19 06:23:29;;;;;;;28.00;25.35;;;20.80;78.30;;;;;;4993961;28;20386;-78
2022/06/19 06:26:06;;;;;;;36.40;33.42;;;20.90;78.70;;;;;;4993853;28;20037;-77
2022/06/19 06:28:32;;;;;;;32.97;30.17;;;21.10;77.50;;;;;;5011231;28;20030;-78
2022/06/19 06:30:58;;;;;;;32.28;29.65;;;21.10;78.10;;;;;;5006889;28;20029;-78
2022/06/19 06:33:25;;;;;;;33.75;29.70;;;21.10;77.20;;;;;;5009536;28;20029;-78
2022/06/19 06:35:51;;;;;;;34.10;30.92;;;21.10;77.40;;;;;;5009402;28;20642;-78
2022/06/19 06:38:17;;;;;;;32.70;29.73;;;21.30;77.30;;;;;;4991519;28;20057;-78
2022/06/19 06:40:43;;;;;;;38.85;35.63;;;21.30;76.90;;;;;;4977430;28;20032;-77
2022/06/19 06:43:09;;;;;;;35.03;31.83;;;21.50;76.50;;;;;;5009125;28;20034;-78
2022/06/19 06:45:36;;;;;;;38.58;35.05;;;21.50;76.80;;;;;;4989671;28;20045;-78
2022/06/19 06:48:03;;;;;;;40.03;36.67;;;21.60;76.10;;;;;;4990246;28;20041;-78
2022/06/19 06:50:29;;;;;;;36.22;33.38;;;21.60;75.40;;;;;;4974247;28;20031;-78
2022/06/19 06:52:55;;;;;;;31.48;28.73;;;21.50;75.80;;;;;;4993147;28;20442;-78
2022/06/19 06:55:21;;;;;;;39.70;36.53;;;21.40;76.10;;;;;;5009034;28;20022;-78
2022/06/19 06:57:47;;;;;;;38.03;34.97;;;21.50;74.90;;;;;;4973267;28;20073;-78
2022/06/19 07:00:23;;;;;;;37.28;34.03;;;21.60;75.30;;;;;;4989592;28;20030;-78
2022/06/19 07:02:49;;;;;;;35.88;32.78;;;21.60;75.00;;;;;;4989928;28;20038;-78
2022/06/19 07:05:15;;;;;;;31.88;29.48;;;21.70;75.50;;;;;;4991574;28;20423;-78
2022/06/19 07:07:41;;;;;;;35.33;30.25;;;21.70;75.00;;;;;;4993577;28;20403;-78
2022/06/19 07:10:08;;;;;;;39.03;36.08;;;21.60;75.30;;;;;;4972824;28;20052;-78
2022/06/19 07:12:34;;;;;;;39.38;36.10;;;21.70;75.00;;;;;;4992488;28;20042;-78
2022/06/19 07:15:00;;;;;;;38.63;35.35;;;21.80;74.80;;;;;;4989751;28;20029;-78
2022/06/19 07:17:27;;;;;;;36.08;33.05;;;22.00;74.50;;;;;;5008388;28;20054;-78
2022/06/19 07:19:53;;;;;;;31.02;27.83;;;22.00;73.20;;;;;;5010022;28;20044;-78
2022/06/19 07:22:19;;;;;;;28.55;26.10;;;21.90;72.30;;;;;;5009055;28;20030;-78
2022/06/19 07:24:48;;;;;;;31.80;28.40;;;22.00;72.20;;;;;;5013230;28;20040;-78
2022/06/19 07:27:15;;;;;;;36.83;34.22;;;22.10;72.30;;;;;;5015211;28;20045;-78
2022/06/19 07:29:42;;;;;;;37.38;33.83;;;22.10;72.50;;;;;;4996087;28;20045;-78
2022/06/19 07:32:08;;;;;;;44.45;41.17;;;21.80;72.00;;;;;;5014944;28;20065;-79
2022/06/19 07:34:35;;;;;;;27.85;25.75;;;21.70;72.70;;;;;;4999719;28;20214;-78
2022/06/19 07:37:01;;;;;;;35.45;32.38;;;21.60;72.70;;;;;;4996328;28;20048;-78
2022/06/19 07:39:27;;;;;;;30.63;27.85;;;21.60;73.30;;;;;;5014162;28;20038;-77
2022/06/19 07:41:53;;;;;;;34.10;31.30;;;21.70;73.90;;;;;;4982505;28;20383;-77
2022/06/19 07:44:19;;;;;;;31.50;28.73;;;21.70;72.70;;;;;;4997719;28;23774;-78
2022/06/19 07:52:15;;;;;;;37.45;34.05;;;21.50;72.90;;;;;;4998692;28;20471;-78
2022/06/19 07:54:41;;;;;;;35.80;33.13;;;21.50;72.80;;;;;;4995574;28;20033;-78
2022/06/19 07:57:07;;;;;;;32.20;29.30;;;21.70;72.10;;;;;;4995971;28;20029;-75
2022/06/19 07:59:33;;;;;;;32.05;29.35;;;21.70;71.30;;;;;;5015317;28;20030;-78
2022/06/19 08:01:59;;;;;;;37.58;34.55;;;21.70;72.70;;;;;;4997984;28;20387;-78
2022/06/19 08:04:25;;;;;;;23.55;20.92;;;21.60;72.30;;;;;;4997027;28;20030;-78
2022/06/19 08:06:51;;;;;;;22.00;19.55;;;21.40;74.40;;;;;;5014820;28;20057;-78
2022/06/19 08:09:17;;;;;;;21.77;18.88;;;21.30;75.40;;;;;;4995371;28;20029;-78
2022/06/19 08:11:44;;;;;;;20.83;16.45;;;21.10;76.20;;;;;;5014653;28;20057;-77
2022/06/19 08:14:10;;;;;;;18.63;16.60;;;21.00;76.60;;;;;;5014479;28;20442;-77
2022/06/19 08:16:36;;;;;;;27.35;24.55;;;21.10;76.60;;;;;;5016201;28;20036;-78
2022/06/19 08:19:02;;;;;;;24.42;22.15;;;21.10;75.70;;;;;;5013290;28;20034;-77
2022/06/19 08:21:28;;;;;;;27.17;24.40;;;21.10;75.90;;;;;;4997638;28;20482;-77
2022/06/19 08:23:54;;;;;;;26.95;23.08;;;21.10;76.30;;;;;;5014555;28;20037;-77
2022/06/19 08:26:20;;;;;;;31.65;22.25;;;21.40;76.90;;;;;;4996312;28;20475;-78
2022/06/19 08:29:01;;;;;;;25.77;22.88;;;21.70;76.30;;;;;;5016547;28;20034;-78
2022/06/19 08:31:28;;;;;;;31.77;28.77;;;21.90;75.80;;;;;;5016014;28;20037;-79
2022/06/19 08:33:55;;;;;;;23.63;20.83;;;21.70;74.40;;;;;;4994371;28;20034;-78
2022/06/19 08:36:21;;;;;;;21.60;17.85;;;21.60;75.60;;;;;;5011541;28;20034;-78
2022/06/19 08:38:49;;;;;;;22.77;18.05;;;21.20;76.40;;;;;;4992410;28;20383;-78
2022/06/19 08:41:40;;;;;;;23.02;17.10;;;21.10;76.90;;;;;;4993253;28;20030;-78
2022/06/19 08:44:24;;;;;;;21.98;16.80;;;21.10;77.60;;;;;;4992643;28;20045;-78
2022/06/19 08:47:14;;;;;;;22.42;15.57;;;21.20;78.50;;;;;;5009444;28;20037;-78
2022/06/19 08:50:14;;;;;;;27.67;15.98;;;21.40;78.10;;;;;;4998918;28;20475;-77
2022/06/19 08:52:54;;;;;;;19.73;15.65;;;21.50;77.60;;;;;;5011879;28;20041;-78
2022/06/19 08:55:26;;;;;;;18.55;15.20;;;21.40;77.80;;;;;;5010778;28;20033;-78
2022/06/19 08:57:56;;;;;;;26.85;16.67;;;21.30;77.70;;;;;;4991531;28;20046;-78
2022/06/19 09:00:25;;;;;;;22.83;15.52;;;21.40;78.00;;;;;;4991661;28;20045;-78
2022/06/19 09:03:06;;;;;;;21.25;16.05;;;21.30;77.70;;;;;;5011132;28;20058;-78
2022/06/19 09:05:53;;;;;;;23.35;16.85;;;21.20;78.10;;;;;;5009983;28;20026;-78
2022/06/19 09:08:28;;;;;;;22.38;16.15;;;21.20;79.00;;;;;;5010863;28;20026;-77
2022/06/19 09:10:57;;;;;;;23.25;18.00;;;21.20;78.50;;;;;;5008865;28;20034;-78
2022/06/19 09:13:38;;;;;;;21.98;15.70;;;21.20;80.30;;;;;;4992426;28;20064;-77
2022/06/19 09:16:23;;;;;;;20.05;17.15;;;21.30;79.20;;;;;;5010442;28;20041;-77
2022/06/19 09:19:12;;;;;;;23.63;18.58;;;21.50;81.00;;;;;;5010837;28;20038;-77
2022/06/19 09:22:00;;;;;;;22.90;20.58;;;21.70;79.10;;;;;;4993977;28;20037;-78
2022/06/19 09:24:51;;;;;;;24.27;17.35;;;21.90;78.50;;;;;;4997078;28;20034;-78
2022/06/19 09:27:19;;;;;;;25.83;23.27;;;22.10;79.30;;;;;;5010547;28;20033;-78
2022/06/19 09:30:01;;;;;;;24.23;21.73;;;22.30;77.10;;;;;;4991833;28;20060;-79
2022/06/19 09:32:56;;;;;;;31.48;28.52;;;22.50;77.40;;;;;;4994803;28;20042;-76
2022/06/19 09:35:34;;;;;;;33.33;30.17;;;22.90;75.50;;;;;;4976516;28;20033;-78
2022/06/19 09:38:01;;;;;;;31.60;28.80;;;23.00;76.20;;;;;;4992871;28;20030;-78
2022/06/19 09:40:38;;;;;;;34.78;32.00;;;23.10;75.50;;;;;;4994059;28;20149;-78
2022/06/19 09:43:39;;;;;;;27.80;25.30;;;23.10;74.10;;;;;;4974927;28;20042;-78
2022/06/19 09:46:07;;;;;;;30.95;27.90;;;23.20;72.80;;;;;;4966747;28;20042;-79
2022/06/19 09:48:42;;;;;;;21.60;19.25;;;23.40;73.70;;;;;;4937781;28;20043;-78
2022/06/19 09:51:22;;;;;;;19.98;17.90;;;23.70;71.60;;;;;;4939732;28;20565;-79
2022/06/19 09:53:55;;;;;;;21.00;18.55;;;23.80;70.70;;;;;;4934943;29;20054;-78
2022/06/19 09:56:30;;;;;;;29.83;27.13;;;23.90;69.70;;;;;;4954553;28;20094;-78
2022/06/19 09:59:04;;;;;;;20.73;16.50;;;24.00;72.20;;;;;;4966828;28;20050;-78
2022/06/19 10:01:30;;;;;;;24.77;21.15;;;24.30;70.20;;;;;;4973445;28;20042;-78
2022/06/19 10:04:05;;;;;;;21.80;19.60;;;24.20;67.90;;;;;;4953567;28;20039;-79
2022/06/19 10:06:38;;;;;;;24.85;22.60;;;24.50;68.90;;;;;;4954010;28;20031;-79
2022/06/19 10:09:28;;;;;;;24.27;22.17;;;24.50;67.00;;;;;;4953672;28;20058;-78
2022/06/19 10:11:58;;;;;;;26.55;20.90;;;24.50;67.20;;;;;;4975487;28;20043;-78
2022/06/19 10:14:32;;;;;;;21.73;17.35;;;24.40;66.10;;;;;;4938292;28;20042;-78
2022/06/19 10:17:16;;;;;;;20.60;18.38;;;24.40;67.70;;;;;;4972411;28;20058;-78
2022/06/19 10:20:07;;;;;;;19.52;16.65;;;24.30;67.50;;;;;;4969884;28;20038;-77
2022/06/19 10:22:47;;;;;;;23.25;18.33;;;24.20;67.60;;;;;;4967516;28;20042;-77
2022/06/19 10:25:13;;;;;;;22.17;18.13;;;24.00;67.30;;;;;;4978140;28;20049;-78
2022/06/19 10:27:55;;;;;;;21.17;16.25;;;23.90;67.70;;;;;;5009555;28;20034;-77
2022/06/19 10:30:58;;;;;;;21.70;17.95;;;24.00;68.00;;;;;;4991852;28;20036;-77
2022/06/19 10:33:48;;;;;;;18.33;15.88;;;23.90;67.40;;;;;;4988158;28;20044;-78
2022/06/19 10:36:31;;;;;;;18.40;16.50;;;23.80;68.20;;;;;;4991479;28;20034;-78
2022/06/19 10:39:16;;;;;;;17.48;15.73;;;23.90;68.70;;;;;;4990832;28;20044;-77
2022/06/19 10:42:01;;;;;;;19.30;16.00;;;23.90;68.40;;;;;;5009686;28;20026;-78
2022/06/19 10:44:47;;;;;;;24.52;21.35;;;23.80;68.30;;;;;;4991362;28;20114;-78
2022/06/19 10:47:38;;;;;;;18.95;15.63;;;23.80;69.70;;;;;;4994182;28;20057;-78
2022/06/19 10:50:13;;;;;;;18.02;15.52;;;23.70;68.70;;;;;;5007674;28;20033;-77
2022/06/19 10:53:24;;;;;;;21.73;19.52;;;23.70;69.30;;;;;;4992207;28;20030;-78
2022/06/19 10:56:05;;;;;;;;;;;23.70;69.50;;;;;;4952112;28;20047;-78
2022/06/19 10:58:31;;;;;;;18.55;16.58;;;23.70;68.90;;;;;;4937985;28;19919;-78
2022/06/19 11:01:06;;;;;;;22.67;16.33;;;23.70;70.00;;;;;;4945608;28;20057;-78
2022/06/19 11:04:07;;;;;;;22.90;16.45;;;23.80;69.30;;;;;;4941376;29;20031;-77
2022/06/19 11:06:52;;;;;;;23.42;16.33;;;23.90;69.00;;;;;;4937605;28;20043;-78
2022/06/19 11:09:22;;;;;;;22.67;17.15;;;23.90;68.80;;;;;;4937116;28;20046;-77
2022/06/19 11:11:50;;;;;;;22.90;17.83;;;23.90;69.30;;;;;;4934038;28;20035;-77
2022/06/19 11:14:55;;;;;;;18.48;16.55;;;24.00;69.30;;;;;;4932662;29;20035;-77
2022/06/19 11:17:35;;;;;;;18.02;16.05;;;24.00;68.60;;;;;;4945599;28;20554;-78
2022/06/19 11:20:16;;;;;;;18.23;16.07;;;24.00;68.80;;;;;;4936880;29;20031;-77
2022/06/19 11:22:42;;;;;;;;;;;24.00;69.10;;;;;;4954040;28;20075;-78
2022/06/19 11:25:24;;;;;;;19.23;17.27;;;24.10;69.20;;;;;;4950961;28;19910;-78
2022/06/19 11:28:00;;;;;;;18.33;16.42;;;24.20;68.80;;;;;;4935094;29;20039;-77
2022/06/19 11:30:50;;;;;;;22.35;17.48;;;24.30;68.60;;;;;;4927508;28;20042;-77
2022/06/19 11:33:31;;;;;;;21.60;19.35;;;24.30;68.80;;;;;;4989525;28;20029;-77
2022/06/19 11:36:00;;;;;;;22.60;18.52;;;24.40;68.30;;;;;;4991073;28;20030;-78
2022/06/19 11:38:46;;;;;;;20.80;18.58;;;24.50;68.40;;;;;;4989520;28;20054;-77
2022/06/19 11:41:21;;;;;;;23.92;21.23;;;24.60;68.60;;;;;;4991763;28;20033;-78
2022/06/19 11:44:20;;;;;;;22.83;20.67;;;24.60;68.30;;;;;;5010764;28;20040;-78
2022/06/19 11:46:50;;;;;;;29.15;25.25;;;24.70;67.30;;;;;;4944529;29;20067;-78
2022/06/19 11:49:25;;;;;;;24.80;22.30;;;24.80;67.40;;;;;;4933047;29;20036;-78
2022/06/19 11:51:51;;;;;;;26.33;24.05;;;24.80;67.10;;;;;;4933286;29;20043;-78
2022/06/19 11:54:17;;;;;;;25.42;23.02;;;24.90;67.40;;;;;;4916806;29;20040;-78
2022/06/19 11:56:43;;;;;;;23.85;21.48;;;24.90;67.20;;;;;;4933089;29;20402;-77
2022/06/19 11:59:44;;;;;;;24.55;22.00;;;24.90;67.30;;;;;;4948623;29;20066;-78
2022/06/19 12:02:35;;;;;;;25.77;23.13;;;24.90;67.20;;;;;;4931373;29;20051;-77
2022/06/19 12:05:04;;;;;;;27.75;25.10;;;25.00;67.50;;;;;;4932714;29;20423;-78
2022/06/19 12:07:31;;;;;;;27.55;23.65;;;25.10;67.50;;;;;;4931636;29;20047;-78
2022/06/19 12:09:58;;;;;;;35.00;31.85;;;25.30;68.00;;;;;;4947823;29;20046;-78
2022/06/19 12:12:25;;;;;;;34.97;32.08;;;25.40;66.20;;;;;;4949607;29;20381;-78
2022/06/19 12:15:23;;;;;;;35.72;32.83;;;25.40;66.40;;;;;;4936282;29;20197;-78
2022/06/19 12:18:01;;;;;;;37.45;33.85;;;25.70;66.70;;;;;;4917791;29;20047;-78
2022/06/19 12:20:32;;;;;;;35.17;32.25;;;25.90;66.00;;;;;;4929354;29;20038;-78
2022/06/19 12:22:58;;;;;;;;;;;26.20;64.80;;;;;;4980231;28;20045;-78
2022/06/19 12:25:33;;;;;;;35.53;32.33;;;26.30;63.90;;;;;;5012495;28;19909;-78
2022/06/19 12:28:23;;;;;;;37.00;33.83;;;26.50;63.80;;;;;;5011654;28;20041;-78
2022/06/19 12:31:12;;;;;;;37.30;34.43;;;26.70;63.80;;;;;;4991069;28;20038;-78
2022/06/19 12:33:57;;;;;;;36.85;33.80;;;26.90;63.30;;;;;;4995169;28;20042;-77
2022/06/19 12:36:27;;;;;;;38.63;35.42;;;27.00;63.30;;;;;;4992540;28;20034;-78
2022/06/19 12:38:53;;;;;;;39.13;35.63;;;27.20;63.60;;;;;;4992768;28;20417;-78
2022/06/19 12:41:38;;;;;;;37.17;33.70;;;27.40;63.30;;;;;;4993887;28;20026;-78
2022/06/19 12:44:33;;;;;;;41.20;37.83;;;27.60;61.80;;;;;;4994599;28;20041;-78
2022/06/19 12:47:05;;;;;;;40.22;36.88;;;27.70;60.60;;;;;;4910954;29;20051;-78
2022/06/19 12:49:40;;;;;;;42.30;38.92;;;27.80;60.80;;;;;;4898126;29;20044;-78
2022/06/19 12:52:18;;;;;;;40.47;36.75;;;27.80;60.60;;;;;;4914769;29;20048;-78
2022/06/19 12:54:46;;;;;;;37.78;34.78;;;27.70;60.70;;;;;;4914892;29;20486;-78
2022/06/19 12:57:48;;;;;;;39.40;35.72;;;27.60;60.80;;;;;;4914804;29;20052;-78